createdAt,value
2019-04-21T00:01:57.896Z,11.68
2019-04-21T00:04:39.229Z,11.70
2019-04-21T00:07:14.455Z,11.62
2019-04-21T00:12:18.066Z,10.83
2019-04-21T00:14:39.719Z,10.83
2019-04-21T00:17:06.027Z,11.06
2019-04-21T00:19:36.762Z,10.60
2019-04-21T00:22:14.933Z,9.96
2019-04-21T00:24:50.715Z,9.89
2019-04-21T00:27:21.221Z,10.14
2019-04-21T00:29:52.061Z,10.01
2019-04-21T00:32:20.700Z,9.83
2019-04-21T00:34:36.235Z,9.64
2019-04-21T00:37:15.796Z,9.38
2019-04-21T00:40:13.214Z,9.39
2019-04-21T00:42:25.194Z,9.91
2019-04-21T00:44:54.109Z,9.96
2019-04-21T00:47:30.600Z,9.69
2019-04-21T00:50:02.028Z,9.45
2019-04-21T00:52:51.290Z,9.54
2019-04-21T00:55:27.881Z,9.56
2019-04-21T00:57:57.097Z,9.49
2019-04-21T01:00:23.304Z,9.55
2019-04-21T01:02:57.617Z,9.72
2019-04-21T01:05:22.070Z,10.18
2019-04-21T01:07:56.237Z,10.28
2019-04-21T01:10:14.875Z,10.44
2019-04-21T01:12:55.584Z,10.59
2019-04-21T01:15:32.309Z,10.69
2019-04-21T01:17:54.639Z,9.26
2019-04-21T01:20:16.058Z,9.13
2019-04-21T01:22:32.606Z,8.87
2019-04-21T01:25:09.949Z,8.80
2019-04-21T01:27:52.191Z,8.73
2019-04-21T01:30:23.736Z,9.05
2019-04-21T01:32:53.308Z,9.32
2019-04-21T01:35:21.237Z,9.16
2019-04-21T01:40:31.959Z,10.13
2019-04-21T01:42:58.611Z,10.25
2019-04-21T01:45:21.876Z,10.20
2019-04-21T01:47:50.675Z,9.42
2019-04-21T01:50:27.462Z,9.61
2019-04-21T01:53:02.374Z,9.73
2019-04-21T01:55:52.819Z,9.86
2019-04-21T01:58:15.443Z,9.46
2019-04-21T02:00:57.199Z,9.35
2019-04-21T02:03:54.468Z,9.23
2019-04-21T02:06:11.135Z,9.59
2019-04-21T02:08:34.343Z,9.75
2019-04-21T02:11:12.635Z,10.01
2019-04-21T02:13:41.928Z,10.03
2019-04-21T02:16:06.500Z,10.11
2019-04-21T02:18:34.971Z,10.08
2019-04-21T02:20:52.831Z,10.05
2019-04-21T02:26:10.828Z,10.11
2019-04-21T02:28:51.658Z,10.09
2019-04-21T02:33:55.923Z,10.08
2019-04-21T02:36:45.924Z,10.08
2019-04-21T02:38:57.797Z,10.04
2019-04-21T02:41:15.761Z,9.94
2019-04-21T02:43:58.210Z,9.90
2019-04-21T02:46:27.428Z,9.87
2019-04-21T02:48:56.172Z,9.87
2019-04-21T02:51:21.827Z,9.86
2019-04-21T02:54:24.489Z,9.88
2019-04-21T02:56:24.721Z,9.90
2019-04-21T02:59:02.464Z,9.92
2019-04-21T03:01:46.211Z,9.97
2019-04-21T03:04:10.482Z,9.91
2019-04-21T03:07:03.743Z,9.79
2019-04-21T03:12:04.862Z,9.62
2019-04-21T03:14:40.970Z,9.65
2019-04-21T03:16:58.995Z,9.61
2019-04-21T03:19:36.520Z,9.62
2019-04-21T03:21:58.340Z,9.65
2019-04-21T03:24:29.435Z,9.61
2019-04-21T03:27:10.375Z,9.54
2019-04-21T03:29:46.119Z,9.57
2019-04-21T03:39:30.967Z,9.45
2019-04-21T03:44:34.821Z,9.08
2019-04-21T03:52:03.348Z,8.97
2019-04-21T03:54:37.322Z,8.95
2019-04-21T03:57:25.598Z,9.08
2019-04-21T03:59:24.683Z,9.12
2019-04-21T04:02:14.762Z,9.13
2019-04-21T04:04:45.442Z,9.07
2019-04-21T04:07:32.988Z,8.96
2019-04-21T04:10:02.510Z,9.01
2019-04-21T04:12:32.854Z,8.92
2019-04-21T04:17:26.106Z,9.09
2019-04-21T04:22:37.830Z,9.28
2019-04-21T04:27:49.231Z,9.30
2019-04-21T04:30:08.376Z,9.24
2019-04-21T04:32:42.775Z,9.33
2019-04-21T04:40:10.914Z,9.05
2019-04-21T04:42:46.255Z,8.93
2019-04-21T04:45:15.730Z,9.41
2019-04-21T04:47:47.330Z,9.62
2019-04-21T04:49:59.695Z,9.97
2019-04-21T04:52:38.023Z,10.42
2019-04-21T04:55:06.523Z,10.36
2019-04-21T04:57:49.157Z,10.41
2019-04-21T05:02:40.334Z,10.53
2019-04-21T05:05:17.317Z,10.53
2019-04-21T05:07:44.652Z,10.74
2019-04-21T05:10:07.525Z,10.90
2019-04-21T05:12:38.510Z,10.98
2019-04-21T05:15:09.743Z,11.09
2019-04-21T05:18:07.192Z,11.31
2019-04-21T05:20:13.167Z,11.16
2019-04-21T05:22:35.361Z,11.48
2019-04-21T05:24:58.016Z,11.49
2019-04-21T05:27:31.531Z,11.57
2019-04-21T05:30:17.306Z,11.77
2019-04-21T05:32:45.173Z,11.69
2019-04-21T05:35:14.614Z,11.43
2019-04-21T05:37:58.625Z,11.56
2019-04-21T05:40:24.878Z,11.55
2019-04-21T05:42:55.718Z,10.82
2019-04-21T05:45:50.002Z,11.12
2019-04-21T05:48:12.162Z,11.27
2019-04-21T05:50:30.435Z,11.34
2019-04-21T05:52:53.574Z,11.42
2019-04-21T05:55:36.022Z,11.07
2019-04-21T05:58:03.661Z,10.85
2019-04-21T06:00:59.305Z,10.90
2019-04-21T06:03:09.911Z,10.69
2019-04-21T06:05:47.913Z,11.04
2019-04-21T06:08:09.968Z,11.55
2019-04-21T06:10:41.902Z,11.90
2019-04-21T06:13:13.695Z,11.86
2019-04-21T06:15:45.513Z,12.22
2019-04-21T06:18:12.988Z,11.83
2019-04-21T06:20:40.653Z,10.90
2019-04-21T06:23:11.531Z,11.89
2019-04-21T06:25:54.558Z,12.40
2019-04-21T06:28:14.897Z,12.83
2019-04-21T06:30:52.790Z,12.97
2019-04-21T06:33:15.632Z,12.83
2019-04-21T06:36:07.737Z,13.06
2019-04-21T06:38:23.444Z,13.17
2019-04-21T06:40:51.167Z,13.32
2019-04-21T06:43:25.845Z,13.63
2019-04-21T06:45:55.691Z,13.35
2019-04-21T06:48:20.334Z,13.71
2019-04-21T06:50:52.892Z,13.95
2019-04-21T06:53:20.697Z,14.33
2019-04-21T06:55:47.573Z,14.43
2019-04-21T06:58:22.158Z,14.59
2019-04-21T07:00:47.678Z,14.67
2019-04-21T07:03:29.745Z,14.63
2019-04-21T07:05:57.271Z,14.87
2019-04-21T07:08:29.368Z,14.64
2019-04-21T07:10:52.016Z,14.92
2019-04-21T07:13:19.201Z,14.73
2019-04-21T07:15:53.902Z,15.08
2019-04-21T07:18:19.159Z,15.24
2019-04-21T07:20:58.115Z,15.36
2019-04-21T07:23:24.072Z,15.56
2019-04-21T07:25:52.904Z,15.43
2019-04-21T07:28:25.594Z,15.18
2019-04-21T07:30:59.428Z,14.84
2019-04-21T07:33:49.291Z,15.74
2019-04-21T07:35:51.799Z,15.48
2019-04-21T07:38:24.525Z,15.80
2019-04-21T07:40:50.054Z,15.00
2019-04-21T07:43:18.185Z,15.57
2019-04-21T07:45:51.642Z,16.15
2019-04-21T07:48:26.312Z,15.58
2019-04-21T07:51:11.089Z,15.59
2019-04-21T07:53:49.900Z,16.14
2019-04-21T07:55:53.740Z,16.39
2019-04-21T07:58:47.605Z,17.03
2019-04-21T08:01:14.349Z,17.10
2019-04-21T08:03:38.904Z,16.78
2019-04-21T08:06:18.912Z,16.45
2019-04-21T08:08:43.538Z,16.75
2019-04-21T08:11:10.903Z,16.04
2019-04-21T08:16:10.965Z,16.62
2019-04-21T08:18:58.285Z,17.37
2019-04-21T08:21:10.715Z,18.16
2019-04-21T08:23:41.699Z,18.23
2019-04-21T08:26:30.805Z,18.46
2019-04-21T08:28:48.993Z,18.39
2019-04-21T08:31:17.831Z,16.49
2019-04-21T08:33:49.645Z,17.35
2019-04-21T08:40:07.433Z,18.12
2019-04-21T08:42:27.024Z,18.76
2019-04-21T08:45:03.968Z,19.23
2019-04-21T08:47:28.482Z,18.80
2019-04-21T08:49:53.600Z,19.57
2019-04-21T08:52:41.166Z,19.62
2019-04-21T08:55:08.759Z,19.01
2019-04-21T08:58:00.841Z,19.57
2019-04-21T09:00:27.258Z,19.67
2019-04-21T09:02:58.882Z,19.81
2019-04-21T09:05:26.186Z,19.81
2019-04-21T09:08:00.114Z,17.59
2019-04-21T09:10:33.076Z,18.74
2019-04-21T09:13:00.153Z,18.78
2019-04-21T09:15:24.986Z,19.32
2019-04-21T09:17:53.609Z,19.64
2019-04-21T09:20:32.574Z,19.32
2019-04-21T09:23:00.782Z,19.02
2019-04-21T09:25:33.390Z,17.90
2019-04-21T09:28:01.271Z,19.78
2019-04-21T09:30:13.027Z,18.79
2019-04-21T09:32:42.479Z,19.82
2019-04-21T09:35:14.808Z,18.23
2019-04-21T09:37:51.710Z,17.62
2019-04-21T09:40:13.956Z,17.81
2019-04-21T09:42:53.102Z,17.62
2019-04-21T09:45:14.356Z,18.95
2019-04-21T09:47:51.003Z,18.66
2019-04-21T09:50:13.520Z,17.98
2019-04-21T09:52:50.115Z,18.38
2019-04-21T09:55:17.880Z,18.85
2019-04-21T09:57:49.562Z,19.06
2019-04-21T10:00:19.501Z,18.43
2019-04-21T10:02:53.470Z,19.35
2019-04-21T10:05:14.567Z,18.90
2019-04-21T10:07:44.291Z,17.96
2019-04-21T10:10:14.918Z,18.29
2019-04-21T10:12:43.511Z,17.91
2019-04-21T10:15:12.280Z,18.86
2019-04-21T10:17:45.158Z,19.11
2019-04-21T10:20:14.059Z,19.18
2019-04-21T10:22:42.629Z,18.52
2019-04-21T10:25:12.712Z,18.71
2019-04-21T10:27:41.355Z,19.43
2019-04-21T10:30:11.976Z,19.39
2019-04-21T10:32:42.677Z,18.52
2019-04-21T10:35:15.261Z,19.04
2019-04-21T10:37:53.649Z,18.29
2019-04-21T10:40:15.846Z,18.02
2019-04-21T10:42:44.412Z,19.15
2019-04-21T10:45:13.226Z,19.44
2019-04-21T10:47:43.064Z,20.80
2019-04-21T10:50:13.076Z,21.56
2019-04-21T10:53:00.840Z,22.17
2019-04-21T10:55:44.608Z,21.60
2019-04-21T10:58:10.841Z,21.15
2019-04-21T11:00:42.086Z,21.38
2019-04-21T11:03:31.129Z,21.69
2019-04-21T11:06:03.912Z,22.08
2019-04-21T11:08:37.670Z,21.05
2019-04-21T11:11:03.770Z,20.65
2019-04-21T11:13:32.692Z,20.76
2019-04-21T11:16:01.502Z,20.52
2019-04-21T11:18:31.522Z,21.28
2019-04-21T11:21:00.722Z,21.31
2019-04-21T11:23:29.328Z,21.79
2019-04-21T11:25:58.112Z,22.69
2019-04-21T11:28:27.255Z,23.06
2019-04-21T11:30:57.151Z,23.16
2019-04-21T11:33:27.036Z,22.24
2019-04-21T11:35:55.687Z,21.20
2019-04-21T11:39:00.845Z,21.59
2019-04-21T11:41:13.797Z,21.05
2019-04-21T11:43:43.259Z,21.26
2019-04-21T11:46:12.781Z,20.15
2019-04-21T11:48:42.139Z,20.72
2019-04-21T11:51:11.056Z,21.39
2019-04-21T11:53:40.996Z,21.02
2019-04-21T11:56:09.796Z,19.99
2019-04-21T11:58:39.448Z,20.81
2019-04-21T12:01:09.502Z,21.97
2019-04-21T12:03:38.139Z,22.48
2019-04-21T12:06:06.979Z,23.49
2019-04-21T12:08:41.291Z,24.23
2019-04-21T12:11:07.294Z,24.61
2019-04-21T12:13:36.241Z,23.47
2019-04-21T12:16:05.585Z,21.73
2019-04-21T12:18:34.122Z,23.24
2019-04-21T12:21:03.295Z,24.00
2019-04-21T12:23:32.378Z,24.29
2019-04-21T12:26:01.301Z,23.61
2019-04-21T12:28:30.380Z,24.41
2019-04-21T12:31:00.065Z,24.51
2019-04-21T12:33:43.497Z,23.75
2019-04-21T12:36:13.673Z,24.48
2019-04-21T12:38:48.845Z,23.13
2019-04-21T12:41:12.943Z,24.20
2019-04-21T12:43:42.544Z,24.14
2019-04-21T12:46:11.958Z,24.63
2019-04-21T12:48:41.980Z,24.58
2019-04-21T12:51:12.157Z,23.68
2019-04-21T12:53:41.570Z,24.08
2019-04-21T12:56:11.626Z,23.08
2019-04-21T12:58:41.564Z,22.36
2019-04-21T13:01:10.403Z,23.02
2019-04-21T13:03:39.743Z,21.82
2019-04-21T13:06:09.767Z,20.71
2019-04-21T13:08:49.084Z,20.24
2019-04-21T13:11:09.693Z,21.16
2019-04-21T13:13:39.865Z,22.07
2019-04-21T13:16:09.622Z,21.63
2019-04-21T13:18:39.594Z,21.50
2019-04-21T13:21:08.171Z,20.70
2019-04-21T13:23:36.978Z,20.55
2019-04-21T13:26:06.683Z,20.52
2019-04-21T13:28:37.537Z,20.92
2019-04-21T13:31:06.531Z,22.07
2019-04-21T13:33:35.282Z,22.79
2019-04-21T13:36:05.006Z,22.19
2019-04-21T13:38:40.522Z,21.29
2019-04-21T13:41:24.705Z,21.23
2019-04-21T13:43:37.188Z,20.65
2019-04-21T13:46:06.090Z,20.89
2019-04-21T13:48:34.871Z,20.62
2019-04-21T13:51:05.312Z,20.34
2019-04-21T13:53:34.911Z,20.84
2019-04-21T13:56:06.695Z,20.78
2019-04-21T13:58:35.363Z,20.89
2019-04-21T14:01:03.835Z,22.06
2019-04-21T14:03:33.400Z,20.54
2019-04-21T14:06:02.522Z,20.67
2019-04-21T14:08:31.381Z,21.31
2019-04-21T14:10:59.955Z,22.58
2019-04-21T14:13:32.274Z,21.60
2019-04-21T14:16:02.145Z,23.01
2019-04-21T14:18:31.007Z,22.26
2019-04-21T14:21:00.908Z,22.09
2019-04-21T14:23:36.007Z,21.18
2019-04-21T14:25:59.791Z,20.40
2019-04-21T14:28:28.339Z,20.39
2019-04-21T14:30:56.813Z,20.04
2019-04-21T14:33:25.699Z,20.57
2019-04-21T14:35:54.742Z,20.54
2019-04-21T14:38:24.796Z,20.37
2019-04-21T14:40:54.393Z,20.05
2019-04-21T14:43:23.731Z,19.76
2019-04-21T14:46:11.057Z,19.23
2019-04-21T14:48:48.679Z,20.57
2019-04-21T14:51:36.899Z,20.35
2019-04-21T14:54:08.006Z,19.69
2019-04-21T14:56:37.454Z,20.19
2019-04-21T14:59:07.244Z,20.60
2019-04-21T15:01:36.005Z,21.24
2019-04-21T15:04:05.883Z,20.96
2019-04-21T15:06:34.414Z,20.93
2019-04-21T15:09:04.983Z,20.53
2019-04-21T15:11:33.818Z,20.52
2019-04-21T15:14:02.341Z,19.63
2019-04-21T15:16:32.894Z,19.95
2019-04-21T15:19:02.442Z,19.72
2019-04-21T15:21:31.288Z,19.29
2019-04-21T15:24:00.411Z,19.79
2019-04-21T15:26:30.211Z,20.26
2019-04-21T15:28:59.235Z,20.90
2019-04-21T15:31:33.873Z,20.79
2019-04-21T15:33:59.174Z,19.66
2019-04-21T15:36:31.548Z,19.28
2019-04-21T15:38:58.061Z,19.58
2019-04-21T15:41:26.812Z,19.31
2019-04-21T15:43:56.465Z,19.53
2019-04-21T15:46:26.772Z,19.24
2019-04-21T15:48:55.382Z,20.26
2019-04-21T15:51:24.024Z,20.48
2019-04-21T15:53:52.746Z,19.57
2019-04-21T15:56:28.932Z,19.18
2019-04-21T15:58:59.061Z,20.00
2019-04-21T16:01:50.559Z,20.56
2019-04-21T16:04:19.165Z,20.46
2019-04-21T16:06:47.871Z,19.20
2019-04-21T16:09:21.307Z,19.15
2019-04-21T16:11:46.615Z,19.51
2019-04-21T16:14:16.563Z,18.80
2019-04-21T16:16:45.452Z,18.81
2019-04-21T16:19:14.383Z,19.45
2019-04-21T16:21:46.086Z,19.05
2019-04-21T16:24:14.292Z,18.72
2019-04-21T16:26:44.302Z,19.28
2019-04-21T16:29:13.283Z,18.53
2019-04-21T16:31:42.710Z,18.41
2019-04-21T16:34:11.303Z,18.10
2019-04-21T16:36:39.837Z,18.50
2019-04-21T16:39:09.490Z,18.87
2019-04-21T16:41:38.461Z,19.01
2019-04-21T16:44:07.310Z,19.02
2019-04-21T16:46:35.804Z,19.05
2019-04-21T16:49:05.086Z,18.23
2019-04-21T16:51:33.915Z,18.37
2019-04-21T16:54:04.107Z,17.90
2019-04-21T16:56:37.513Z,18.00
2019-04-21T16:59:10.524Z,18.28
2019-04-21T17:01:40.559Z,18.76
2019-04-21T17:04:10.677Z,18.75
2019-04-21T17:06:40.788Z,18.86
2019-04-21T17:09:10.635Z,18.32
2019-04-21T17:11:41.939Z,18.30
2019-04-21T17:14:27.215Z,18.72
2019-04-21T17:17:02.803Z,18.62
2019-04-21T17:19:20.276Z,18.20
2019-04-21T17:21:41.833Z,18.20
2019-04-21T17:24:10.592Z,18.42
2019-04-21T17:26:41.281Z,18.62
2019-04-21T17:29:10.442Z,18.84
2019-04-21T17:31:39.408Z,18.67
2019-04-21T17:34:13.843Z,18.67
2019-04-21T17:36:39.299Z,18.14
2019-04-21T17:39:11.128Z,18.00
2019-04-21T17:41:55.473Z,18.17
2019-04-21T17:44:11.134Z,18.23
2019-04-21T17:46:46.546Z,18.27
2019-04-21T17:49:12.713Z,18.11
2019-04-21T17:51:49.362Z,18.23
2019-04-21T17:54:26.515Z,18.18
2019-04-21T17:57:15.320Z,18.17
2019-04-21T17:59:51.045Z,18.04
2019-04-21T18:02:09.399Z,17.99
2019-04-21T18:04:42.676Z,17.91
2019-04-21T18:07:26.129Z,17.73
2019-04-21T18:10:02.847Z,17.73
2019-04-21T18:12:26.216Z,17.36
2019-04-21T18:14:51.515Z,17.36
2019-04-21T18:17:10.862Z,17.35
2019-04-21T18:19:43.315Z,17.10
2019-04-21T18:22:17.493Z,17.02
2019-04-21T18:24:56.981Z,17.02
2019-04-21T18:27:19.708Z,16.95
2019-04-21T18:29:52.489Z,16.62
2019-04-21T18:32:26.446Z,16.67
2019-04-21T18:35:11.567Z,16.49
2019-04-21T18:37:51.634Z,16.31
2019-04-21T18:40:27.396Z,16.40
2019-04-21T18:43:32.637Z,16.30
2019-04-21T18:46:02.172Z,16.30
2019-04-21T18:48:18.932Z,16.24
2019-04-21T18:50:51.098Z,16.13
2019-04-21T18:53:40.123Z,16.10
2019-04-21T18:55:59.964Z,16.02
2019-04-21T18:58:24.191Z,15.93
2019-04-21T19:00:56.906Z,15.82
2019-04-21T19:03:28.155Z,15.35
2019-04-21T19:06:01.716Z,15.39
2019-04-21T19:08:51.388Z,15.38
2019-04-21T19:11:15.111Z,15.21
2019-04-21T19:14:17.691Z,15.18
2019-04-21T19:16:33.153Z,15.28
2019-04-21T19:19:22.706Z,15.28
2019-04-21T19:21:24.212Z,15.46
2019-04-21T19:24:10.715Z,15.57
2019-04-21T19:26:39.813Z,15.55
2019-04-21T19:29:03.287Z,15.51
2019-04-21T19:31:38.485Z,15.45
2019-04-21T19:33:57.398Z,15.16
2019-04-21T19:36:15.351Z,15.15
2019-04-21T19:38:55.970Z,15.04
2019-04-21T19:41:28.178Z,15.02
2019-04-21T19:44:02.553Z,14.97
2019-04-21T19:46:33.346Z,14.97
2019-04-21T19:49:13.465Z,14.96
2019-04-21T19:51:33.000Z,14.90
2019-04-21T19:53:58.021Z,14.82
2019-04-21T19:56:16.586Z,14.79
2019-04-21T19:58:47.356Z,14.74
2019-04-21T20:01:15.426Z,14.73
2019-04-21T20:03:48.603Z,14.70
2019-04-21T20:06:30.135Z,14.65
2019-04-21T20:09:04.130Z,14.57
2019-04-21T20:11:34.664Z,14.54
2019-04-21T20:14:35.689Z,14.44
2019-04-21T20:16:37.387Z,14.41
2019-04-21T20:18:54.156Z,14.43
2019-04-21T20:21:16.369Z,14.39
2019-04-21T20:23:46.610Z,14.38
2019-04-21T20:26:17.044Z,14.32
2019-04-21T20:28:56.619Z,14.26
2019-04-21T20:31:30.076Z,14.21
2019-04-21T20:34:05.307Z,14.21
2019-04-21T20:36:35.440Z,14.17
2019-04-21T20:38:53.547Z,14.09
2019-04-21T20:41:26.991Z,14.06
2019-04-21T20:44:06.266Z,13.91
2019-04-21T20:46:36.620Z,13.82
2019-04-21T20:49:02.746Z,13.83
2019-04-21T20:51:37.889Z,13.72
2019-04-21T20:54:01.515Z,13.73
2019-04-21T20:56:39.487Z,13.64
2019-04-21T20:59:10.523Z,13.60
2019-04-21T21:01:39.790Z,13.52
2019-04-21T21:04:06.351Z,13.49
2019-04-21T21:06:36.019Z,13.37
2019-04-21T21:09:07.418Z,13.35
2019-04-21T21:11:43.452Z,13.35
2019-04-21T21:14:11.790Z,13.31
2019-04-21T21:16:48.966Z,13.30
2019-04-21T21:21:34.487Z,13.19
2019-04-21T21:24:10.271Z,13.14
2019-04-21T21:26:44.015Z,12.99
2019-04-21T21:29:03.251Z,12.99
2019-04-21T21:31:41.683Z,12.91
2019-04-21T21:34:16.550Z,12.80
2019-04-21T21:36:43.456Z,12.84
2019-04-21T21:39:14.095Z,12.81
2019-04-21T21:41:31.544Z,12.69
2019-04-21T21:44:01.857Z,12.63
2019-04-21T21:46:43.078Z,12.67
2019-04-21T21:49:05.044Z,12.61
2019-04-21T21:51:41.232Z,12.58
2019-04-21T21:53:57.058Z,12.61
2019-04-21T21:56:26.749Z,12.61
2019-04-21T21:58:56.968Z,12.48
2019-04-21T22:01:31.843Z,12.41
2019-04-21T22:04:07.234Z,12.24
2019-04-21T22:06:38.669Z,11.99
2019-04-21T22:08:58.534Z,12.06
2019-04-21T22:11:27.197Z,12.20
2019-04-21T22:14:02.785Z,12.19
2019-04-21T22:16:38.938Z,12.10
2019-04-21T22:19:13.286Z,12.07
2019-04-21T22:21:49.434Z,12.04
2019-04-21T22:24:05.714Z,11.98
2019-04-21T22:26:27.325Z,11.91
2019-04-21T22:28:55.936Z,11.90
2019-04-21T22:31:29.985Z,11.90
2019-04-21T22:34:00.325Z,11.83
2019-04-21T22:36:36.123Z,11.84
2019-04-21T22:39:13.464Z,11.81
2019-04-21T22:41:33.729Z,11.75
2019-04-21T22:43:59.002Z,11.66
2019-04-21T22:46:26.340Z,11.59
2019-04-21T22:48:59.747Z,11.55
2019-04-21T22:51:34.776Z,11.49
2019-04-21T22:53:57.591Z,11.57
2019-04-21T22:56:30.076Z,11.57
2019-04-21T22:58:57.132Z,11.60
2019-04-21T23:01:34.866Z,11.54
2019-04-21T23:04:00.563Z,11.49
2019-04-21T23:06:30.824Z,11.49
2019-04-21T23:08:57.081Z,11.49
2019-04-21T23:11:28.063Z,11.36
2019-04-21T23:14:04.032Z,11.37
2019-04-21T23:16:32.230Z,11.17
2019-04-21T23:19:15.955Z,11.08
2019-04-21T23:21:48.927Z,11.14
2019-04-21T23:24:16.180Z,11.13
2019-04-21T23:26:44.877Z,11.05
2019-04-21T23:29:21.190Z,11.16
2019-04-21T23:31:47.886Z,11.20
2019-04-21T23:34:00.061Z,11.30
2019-04-21T23:36:32.194Z,11.30
2019-04-21T23:38:58.870Z,11.45
2019-04-21T23:41:36.151Z,11.52
2019-04-21T23:44:02.933Z,11.53
2019-04-21T23:46:31.955Z,11.53
2019-04-21T23:49:15.147Z,11.45
2019-04-21T23:51:40.774Z,11.43
2019-04-21T23:53:59.529Z,11.51
2019-04-21T23:56:34.076Z,11.53
2019-04-21T23:59:03.310Z,11.55
